Time,TemperatureF,DewpointF,PressureIn,WindDirection,WindDirectionDegrees,WindSpeedMPH,WindSpeedGustMPH,Humidity,HourlyPrecipIn,Conditions,Clouds,dailyrainin,SoftwareType,DateUTC
2013-04-05 00:03:00,44.0,20.0,-100.00,SW,230,1.0,2.0,38,-99.99,,,-99.99,,2013-04-05 04:03:00,
2013-04-05 00:12:00,44.0,20.0,-100.00,SW,230,2.0,3.0,38,-99.99,,,-99.99,,2013-04-05 04:12:00,
2013-04-05 00:23:00,44.0,20.0,-100.00,West,260,1.0,3.0,39,-99.99,,,-99.99,,2013-04-05 04:23:00,
2013-04-05 00:33:00,42.0,20.0,-100.00,WSW,250,2.0,4.0,40,-99.99,,,-99.99,,2013-04-05 04:33:00,
2013-04-05 00:42:00,42.0,21.0,-100.00,WNW,285,1.0,4.0,41,-99.99,,,-99.99,,2013-04-05 04:42:00,
2013-04-05 00:52:00,41.0,21.0,-100.00,West,275,1.0,3.0,43,-99.99,,,-99.99,,2013-04-05 04:52:00,
2013-04-05 01:02:00,41.0,21.0,-100.00,NW,320,1.0,1.0,44,-99.99,,,-99.99,,2013-04-05 05:02:00,
2013-04-05 01:13:00,41.0,21.0,-100.00,NW,315,1.0,1.0,45,-99.99,,,-99.99,,2013-04-05 05:13:00,
2013-04-05 01:22:00,41.0,22.0,-100.00,WNW,300,0.0,1.0,47,-99.99,,,-99.99,,2013-04-05 05:22:00,
2013-04-05 01:32:00,42.0,23.0,-100.00,WSW,255,0.0,1.0,47,-99.99,,,-99.99,,2013-04-05 05:32:00,
2013-04-05 01:42:00,42.0,23.0,-100.00,SW,230,1.0,1.0,47,-99.99,,,-99.99,,2013-04-05 05:42:00,
2013-04-05 01:52:00,42.0,24.0,-100.00,SW,225,1.0,1.0,48,-99.99,,,-99.99,,2013-04-05 05:52:00,
2013-04-05 02:02:00,42.0,24.0,-100.00,SW,225,1.0,1.0,48,-99.99,,,-99.99,,2013-04-05 06:02:00,
2013-04-05 02:12:00,43.0,25.0,-100.00,WSW,240,2.0,3.0,48,-99.99,,,-99.99,,2013-04-05 06:12:00,
2013-04-05 02:22:00,43.0,25.0,-100.00,SSW,210,1.0,3.0,48,-99.99,,,-99.99,,2013-04-05 06:22:00,
2013-04-05 02:32:00,43.0,25.0,-100.00,SSW,205,1.0,2.0,47,-99.99,,,-99.99,,2013-04-05 06:32:00,
2013-04-05 02:42:00,44.0,25.0,-100.00,WSW,245,1.0,3.0,47,-99.99,,,-99.99,,2013-04-05 06:42:00,
2013-04-05 02:52:00,43.0,25.0,-100.00,West,275,1.0,2.0,47,-99.99,,,-99.99,,2013-04-05 06:52:00,
2013-04-05 03:03:00,43.0,25.0,-100.00,WSW,250,1.0,2.0,48,-99.99,,,-99.99,,2013-04-05 07:03:00,
2013-04-05 03:12:00,44.0,25.0,-100.00,West,270,2.0,4.0,48,-99.99,,,-99.99,,2013-04-05 07:12:00,
2013-04-05 03:22:00,44.0,25.0,-100.00,SW,230,1.0,4.0,47,-99.99,,,-99.99,,2013-04-05 07:22:00,
2013-04-05 03:32:00,44.0,25.0,-100.00,WSW,240,1.0,2.0,47,-99.99,,,-99.99,,2013-04-05 07:32:00,
2013-04-05 03:42:00,44.0,25.0,-100.00,West,260,1.0,2.0,47,-99.99,,,-99.99,,2013-04-05 07:42:00,
2013-04-05 03:52:00,44.0,25.0,-100.00,West,265,0.0,1.0,48,-99.99,,,-99.99,,2013-04-05 07:52:00,
2013-04-05 04:03:00,44.0,26.0,-100.00,West,260,0.0,1.0,48,-99.99,,,-99.99,,2013-04-05 08:03:00,
2013-04-05 04:13:00,43.0,26.0,-100.00,West,260,0.0,1.0,49,-99.99,,,-99.99,,2013-04-05 08:13:00,
2013-04-05 04:22:00,43.0,26.0,-100.00,West,260,0.0,1.0,49,-99.99,,,-99.99,,2013-04-05 08:22:00,
2013-04-05 04:33:00,42.0,25.0,-100.00,NNW,335,1.0,2.0,49,-99.99,,,-99.99,,2013-04-05 08:33:00,
2013-04-05 04:43:00,42.0,25.0,-100.00,NNW,335,1.0,2.0,50,-99.99,,,-99.99,,2013-04-05 08:43:00,
2013-04-05 04:52:00,41.0,25.0,-100.00,NW,315,1.0,2.0,52,-99.99,,,-99.99,,2013-04-05 08:52:00,
2013-04-05 05:02:00,41.0,26.0,-100.00,WNW,300,0.0,1.0,54,-99.99,,,-99.99,,2013-04-05 09:02:00,
2013-04-05 05:12:00,41.0,26.0,-100.00,WNW,290,1.0,2.0,54,-99.99,,,-99.99,,2013-04-05 09:12:00,
2013-04-05 05:22:00,41.0,26.0,-100.00,WNW,300,0.0,1.0,55,-99.99,,,-99.99,,2013-04-05 09:22:00,
2013-04-05 05:33:00,41.0,27.0,-100.00,NW,315,1.0,2.0,55,-99.99,,,-99.99,,2013-04-05 09:33:00,
2013-04-05 05:43:00,42.0,27.0,-100.00,NNW,340,1.0,2.0,56,-99.99,,,-99.99,,2013-04-05 09:43:00,
2013-04-05 05:52:00,42.0,27.0,-100.00,NNW,345,2.0,4.0,54,-99.99,,,-99.99,,2013-04-05 09:52:00,
2013-04-05 06:03:00,43.0,27.0,-100.00,NNW,345,4.0,6.0,53,-99.99,,,-99.99,,2013-04-05 10:03:00,
2013-04-05 06:13:00,43.0,27.0,-100.00,North,0,4.0,6.0,52,-99.99,,,-99.99,,2013-04-05 10:13:00,
2013-04-05 06:23:00,44.0,27.0,-100.00,NE,55,7.0,12.0,52,-99.99,,,-99.99,,2013-04-05 10:23:00,
2013-04-05 06:33:00,43.0,31.0,-100.00,NE,55,8.0,14.0,60,-99.99,,,-99.99,,2013-04-05 10:33:00,
2013-04-05 06:43:00,42.0,33.0,-100.00,ENE,65,9.0,13.0,69,-99.99,,,-99.99,,2013-04-05 10:43:00,
2013-04-05 06:52:00,42.0,35.0,-100.00,NE,55,8.0,14.0,77,-99.99,,,-99.99,,2013-04-05 10:52:00,
2013-04-05 07:03:00,42.0,37.0,-100.00,ENE,60,11.0,17.0,81,-99.99,,,-99.99,,2013-04-05 11:03:00,
2013-04-05 07:13:00,42.0,37.0,-100.00,ENE,75,10.0,17.0,84,-99.99,,,-99.99,,2013-04-05 11:13:00,
2013-04-05 07:22:00,41.0,37.0,-100.00,ENE,60,9.0,17.0,86,-99.99,,,-99.99,,2013-04-05 11:22:00,
2013-04-05 07:33:00,41.0,38.0,-100.00,ENE,70,9.0,16.0,88,-99.99,,,-99.99,,2013-04-05 11:33:00,
2013-04-05 07:42:00,41.0,38.0,-100.00,ENE,60,9.0,16.0,88,-99.99,,,-99.99,,2013-04-05 11:42:00,
2013-04-05 07:52:00,41.0,38.0,-100.00,ENE,70,9.0,13.0,89,-99.99,,,-99.99,,2013-04-05 11:52:00,
2013-04-05 08:02:00,41.0,38.0,-100.00,ENE,70,9.0,13.0,89,-99.99,,,-99.99,,2013-04-05 12:02:00,
2013-04-05 08:12:00,40.0,38.0,-100.00,East,80,7.0,11.0,90,-99.99,,,-99.99,,2013-04-05 12:12:00,
2013-04-05 08:22:00,40.0,38.0,-100.00,ENE,60,8.0,12.0,91,-99.99,,,-99.99,,2013-04-05 12:22:00,
2013-04-05 08:32:00,40.0,38.0,-100.00,NE,55,7.0,15.0,92,-99.99,,,-99.99,,2013-04-05 12:32:00,
2013-04-05 08:42:00,40.0,38.0,-100.00,ENE,60,7.0,12.0,92,-99.99,,,-99.99,,2013-04-05 12:42:00,
2013-04-05 08:52:00,40.0,39.0,-100.00,ENE,65,7.0,12.0,93,-99.99,,,-99.99,,2013-04-05 12:52:00,
2013-04-05 09:02:00,41.0,39.0,-100.00,NNE,20,8.0,12.0,93,-99.99,,,-99.99,,2013-04-05 13:02:00,
2013-04-05 09:12:00,40.0,39.0,-100.00,NNE,30,7.0,11.0,93,-99.99,,,-99.99,,2013-04-05 13:12:00,
2013-04-05 09:23:00,40.0,38.0,-100.00,NE,40,10.0,14.0,92,-99.99,,,-99.99,,2013-04-05 13:23:00,
2013-04-05 09:32:00,40.0,38.0,-100.00,NNE,30,7.0,14.0,90,-99.99,,,-99.99,,2013-04-05 13:32:00,
2013-04-05 09:42:00,40.0,37.0,-100.00,NNE,30,9.0,15.0,88,-99.99,,,-99.99,,2013-04-05 13:42:00,
2013-04-05 09:52:00,40.0,37.0,-100.00,NE,55,4.0,12.0,87,-99.99,,,-99.99,,2013-04-05 13:52:00,
2013-04-05 10:03:00,40.0,37.0,-100.00,NE,40,7.0,12.0,85,-99.99,,,-99.99,,2013-04-05 14:03:00,
2013-04-05 10:12:00,40.0,37.0,-100.00,NE,40,7.0,12.0,85,-99.99,,,-99.99,,2013-04-05 14:12:00,
2013-04-05 10:23:00,42.0,35.0,-100.00,NE,50,9.0,14.0,77,-99.99,,,-99.99,,2013-04-05 14:23:00,
2013-04-05 10:37:00,42.0,34.0,-100.00,NE,45,7.0,12.0,72,-99.99,,,-99.99,,2013-04-05 14:37:00,
2013-04-05 10:43:00,42.0,34.0,-100.00,NE,45,7.0,12.0,72,-99.99,,,-99.99,,2013-04-05 14:43:00,
2013-04-05 11:02:00,44.0,31.0,-100.00,North,10,8.0,12.0,61,-99.99,,,-99.99,,2013-04-05 15:02:00,
2013-04-05 11:13:00,45.0,31.0,-100.00,NE,55,7.0,13.0,58,-99.99,,,-99.99,,2013-04-05 15:13:00,
2013-04-05 11:23:00,45.0,31.0,-100.00,NE,55,7.0,13.0,58,-99.99,,,-99.99,,2013-04-05 15:23:00,
2013-04-05 11:33:00,47.0,31.0,-100.00,ENE,75,6.0,11.0,55,-99.99,,,-99.99,,2013-04-05 15:33:00,
2013-04-05 11:43:00,47.0,30.0,-100.00,NNE,30,6.0,10.0,51,-99.99,,,-99.99,,2013-04-05 15:43:00,
2013-04-05 11:53:00,47.0,30.0,-100.00,NNE,30,6.0,10.0,51,-99.99,,,-99.99,,2013-04-05 15:53:00,
2013-04-05 12:03:00,47.0,28.0,-100.00,NNE,25,6.0,10.0,48,-99.99,,,-99.99,,2013-04-05 16:03:00,
2013-04-05 12:13:00,47.0,28.0,-100.00,North,0,7.0,14.0,47,-99.99,,,-99.99,,2013-04-05 16:13:00,
2013-04-05 12:23:00,47.0,28.0,-100.00,NNW,345,6.0,12.0,46,-99.99,,,-99.99,,2013-04-05 16:23:00,
2013-04-05 12:33:00,49.0,29.0,-100.00,ENE,75,1.0,9.0,46,-99.99,,,-99.99,,2013-04-05 16:33:00,
2013-04-05 12:42:00,49.0,28.0,-100.00,North,5,7.0,12.0,44,-99.99,,,-99.99,,2013-04-05 16:42:00,
2013-04-05 12:52:00,49.0,29.0,-100.00,NNE,25,7.0,14.0,45,-99.99,,,-99.99,,2013-04-05 16:52:00,
2013-04-05 13:03:00,49.0,29.0,-100.00,North,10,4.0,12.0,46,-99.99,,,-99.99,,2013-04-05 17:03:00,
2013-04-05 13:13:00,49.0,29.0,-100.00,NW,315,7.0,12.0,44,-99.99,,,-99.99,,2013-04-05 17:13:00,
2013-04-05 13:23:00,49.0,28.0,-100.00,NW,315,6.0,11.0,43,-99.99,,,-99.99,,2013-04-05 17:23:00,
2013-04-05 13:33:00,49.0,27.0,-100.00,NNW,330,7.0,17.0,41,-99.99,,,-99.99,,2013-04-05 17:33:00,
2013-04-05 13:45:00,49.0,25.0,-100.00,North,350,9.0,16.0,39,-99.99,,,-99.99,,2013-04-05 17:45:00,
2013-04-05 13:52:00,49.0,25.0,-100.00,North,350,9.0,16.0,39,-99.99,,,-99.99,,2013-04-05 17:52:00,
2013-04-05 14:02:00,50.0,24.0,-100.00,North,0,11.0,17.0,36,-99.99,,,-99.99,,2013-04-05 18:02:00,
2013-04-05 14:12:00,51.0,25.0,-100.00,North,5,7.0,12.0,36,-99.99,,,-99.99,,2013-04-05 18:12:00,
2013-04-05 14:23:00,51.0,23.0,-100.00,North,0,9.0,19.0,33,-99.99,,,-99.99,,2013-04-05 18:23:00,
2013-04-05 14:33:00,51.0,24.0,-100.00,North,5,5.0,14.0,33,-99.99,,,-99.99,,2013-04-05 18:33:00,
2013-04-05 14:43:00,51.0,23.0,-100.00,NNW,340,12.0,21.0,32,-99.99,,,-99.99,,2013-04-05 18:43:00,
2013-04-05 14:52:00,52.0,23.0,-100.00,NNE,15,5.0,15.0,31,-99.99,,,-99.99,,2013-04-05 18:52:00,
2013-04-05 15:02:00,52.0,21.0,-100.00,NW,310,9.0,16.0,29,-99.99,,,-99.99,,2013-04-05 19:02:00,
2013-04-05 15:13:00,52.0,21.0,-100.00,NW,320,9.0,16.0,29,-99.99,,,-99.99,,2013-04-05 19:13:00,
2013-04-05 15:23:00,52.0,20.0,-100.00,NNW,345,11.0,16.0,28,-99.99,,,-99.99,,2013-04-05 19:23:00,
2013-04-05 15:33:00,52.0,20.0,-100.00,NW,325,9.0,16.0,28,-99.99,,,-99.99,,2013-04-05 19:33:00,
2013-04-05 15:42:00,52.0,20.0,-100.00,NW,325,7.0,15.0,28,-99.99,,,-99.99,,2013-04-05 19:42:00,
2013-04-05 15:52:00,52.0,20.0,-100.00,NNW,330,7.0,16.0,28,-99.99,,,-99.99,,2013-04-05 19:52:00,
2013-04-05 16:02:00,53.0,20.0,-100.00,North,355,9.0,14.0,27,-99.99,,,-99.99,,2013-04-05 20:02:00,
2013-04-05 16:11:00,53.0,20.0,-100.00,North,0,9.0,20.0,27,-99.99,,,-99.99,,2013-04-05 20:11:00,
2013-04-05 16:22:00,52.0,19.0,-100.00,North,0,11.0,15.0,27,-99.99,,,-99.99,,2013-04-05 20:22:00,
2013-04-05 16:33:00,52.0,19.0,-100.00,North,5,6.0,14.0,27,-99.99,,,-99.99,,2013-04-05 20:33:00,
2013-04-05 16:42:00,53.0,20.0,-100.00,North,5,2.0,14.0,27,-99.99,,,-99.99,,2013-04-05 20:42:00,
2013-04-05 16:52:00,53.0,22.0,-100.00,NE,40,6.0,15.0,29,-99.99,,,-99.99,,2013-04-05 20:52:00,
2013-04-05 17:02:00,53.0,22.0,-100.00,North,0,6.0,9.0,28,-99.99,,,-99.99,,2013-04-05 21:02:00,
2013-04-05 17:13:00,53.0,21.0,-100.00,NE,40,9.0,13.0,28,-99.99,,,-99.99,,2013-04-05 21:13:00,
2013-04-05 17:23:00,53.0,22.0,-100.00,ENE,65,6.0,13.0,29,-99.99,,,-99.99,,2013-04-05 21:23:00,
2013-04-05 17:43:00,53.0,22.0,-100.00,ENE,70,9.0,14.0,29,-99.99,,,-99.99,,2013-04-05 21:43:00,
2013-04-05 17:53:00,53.0,22.0,-100.00,East,95,7.0,12.0,29,-99.99,,,-99.99,,2013-04-05 21:53:00,
2013-04-05 18:03:00,52.0,21.0,-100.00,East,80,9.0,12.0,29,-99.99,,,-99.99,,2013-04-05 22:03:00,
2013-04-05 18:13:00,52.0,21.0,-100.00,NE,40,6.0,9.0,29,-99.99,,,-99.99,,2013-04-05 22:13:00,
2013-04-05 18:23:00,52.0,21.0,-100.00,ENE,65,9.0,11.0,29,-99.99,,,-99.99,,2013-04-05 22:23:00,
2013-04-05 18:33:00,51.0,22.0,-100.00,ENE,65,7.0,13.0,31,-99.99,,,-99.99,,2013-04-05 22:33:00,
2013-04-05 18:43:00,51.0,22.0,-100.00,ENE,75,8.0,12.0,31,-99.99,,,-99.99,,2013-04-05 22:43:00,
2013-04-05 18:52:00,50.0,22.0,-100.00,East,95,6.0,13.0,32,-99.99,,,-99.99,,2013-04-05 22:52:00,
2013-04-05 19:03:00,50.0,22.0,-100.00,ENE,75,8.0,12.0,32,-99.99,,,-99.99,,2013-04-05 23:03:00,
2013-04-05 19:12:00,49.0,21.0,-100.00,ENE,65,8.0,14.0,33,-99.99,,,-99.99,,2013-04-05 23:12:00,
2013-04-05 19:22:00,48.0,22.0,-100.00,East,100,8.0,13.0,35,-99.99,,,-99.99,,2013-04-05 23:22:00,
2013-04-05 19:33:00,47.0,22.0,-100.00,ESE,105,9.0,14.0,36,-99.99,,,-99.99,,2013-04-05 23:33:00,
2013-04-05 19:42:00,46.0,22.0,-100.00,East,100,7.0,12.0,37,-99.99,,,-99.99,,2013-04-05 23:42:00,
2013-04-05 19:52:00,46.0,22.0,-100.00,East,80,5.0,10.0,39,-99.99,,,-99.99,,2013-04-05 23:52:00,
2013-04-05 20:03:00,45.0,23.0,-100.00,East,100,7.0,11.0,40,-99.99,,,-99.99,,2013-04-06 00:03:00,
2013-04-05 20:13:00,44.0,23.0,-100.00,East,85,7.0,11.0,41,-99.99,,,-99.99,,2013-04-06 00:13:00,
2013-04-05 20:23:00,44.0,23.0,-100.00,East,95,7.0,11.0,43,-99.99,,,-99.99,,2013-04-06 00:23:00,
2013-04-05 20:33:00,43.0,23.0,-100.00,ENE,75,9.0,14.0,44,-99.99,,,-99.99,,2013-04-06 00:33:00,
2013-04-05 20:42:00,43.0,24.0,-100.00,East,85,6.0,12.0,46,-99.99,,,-99.99,,2013-04-06 00:42:00,
2013-04-05 20:52:00,42.0,25.0,-100.00,East,90,7.0,13.0,49,-99.99,,,-99.99,,2013-04-06 00:52:00,
2013-04-05 21:02:00,42.0,26.0,-100.00,East,90,8.0,12.0,51,-99.99,,,-99.99,,2013-04-06 01:02:00,
2013-04-05 21:13:00,42.0,26.0,-100.00,ESE,110,6.0,11.0,53,-99.99,,,-99.99,,2013-04-06 01:13:00,
2013-04-05 21:22:00,41.0,27.0,-100.00,ESE,105,7.0,12.0,56,-99.99,,,-99.99,,2013-04-06 01:22:00,
2013-04-05 21:33:00,40.0,28.0,-100.00,East,100,6.0,13.0,60,-99.99,,,-99.99,,2013-04-06 01:33:00,
2013-04-05 21:43:00,40.0,28.0,-100.00,ESE,105,4.0,7.0,63,-99.99,,,-99.99,,2013-04-06 01:43:00,
2013-04-05 21:52:00,40.0,29.0,-100.00,East,95,4.0,9.0,65,-99.99,,,-99.99,,2013-04-06 01:52:00,
2013-04-05 22:02:00,39.0,29.0,-100.00,ESE,120,4.0,9.0,66,-99.99,,,-99.99,,2013-04-06 02:02:00,
2013-04-05 22:12:00,39.0,29.0,-100.00,ESE,110,5.0,9.0,67,-99.99,,,-99.99,,2013-04-06 02:12:00,
2013-04-05 22:22:00,39.0,29.0,-100.00,SE,135,4.0,9.0,68,-99.99,,,-99.99,,2013-04-06 02:22:00,
2013-04-05 22:32:00,39.0,30.0,-100.00,ESE,120,6.0,8.0,69,-99.99,,,-99.99,,2013-04-06 02:32:00,
2013-04-05 22:42:00,39.0,30.0,-100.00,ESE,105,4.0,9.0,71,-99.99,,,-99.99,,2013-04-06 02:42:00,
2013-04-05 22:52:00,38.0,31.0,-100.00,ESE,120,4.0,9.0,73,-99.99,,,-99.99,,2013-04-06 02:52:00,
2013-04-05 23:03:00,38.0,31.0,-100.00,SE,125,4.0,9.0,74,-99.99,,,-99.99,,2013-04-06 03:03:00,
2013-04-05 23:12:00,38.0,31.0,-100.00,ESE,120,4.0,9.0,75,-99.99,,,-99.99,,2013-04-06 03:12:00,
2013-04-05 23:22:00,38.0,31.0,-100.00,ESE,120,4.0,8.0,76,-99.99,,,-99.99,,2013-04-06 03:22:00,
2013-04-05 23:34:00,37.0,31.0,-100.00,ESE,110,4.0,6.0,77,-99.99,,,-99.99,,2013-04-06 03:34:00,
2013-04-05 23:43:00,37.0,31.0,-100.00,SE,135,4.0,9.0,77,-99.99,,,-99.99,,2013-04-06 03:43:00,
2013-04-05 23:53:00,37.0,31.0,-100.00,ESE,110,5.0,11.0,77,-99.99,,,-99.99,,2013-04-06 03:53:00,